Terminal Aerodrome Forecast
Issued by NWS Charleston, WV

Current Version | Previous Version | Graphics & Text | Print | Product List | Glossary On
Versions: 1 2 3 4 5 6 7 8 9 10 11 12 13 14 15 16 17 18 19 20 21 22 23 24 25
000
FTUS41 KRLX 301141
TAFBKW
TAF
KBKW 301141Z 3012/0112 12009G16KT 6SM SHRA BKN025
     FM301400 13009G17KT 6SM -SHRA VCTS BKN035CB
     FM010300 VRB02KT 4SM -SHRA BKN035
     FM010700 VRB02KT 1/2SM FG BKN003=

USA.gov is the U.S. government's official web portal to all federal, state and local government web resources and services.